Time;durP1;ratioP1;P1;durP2;ratioP2;P2;SDS_P1;SDS_P2;PMS_P1;PMS_P2;Temp;Humidity;BMP_temperature;BMP_pressure;BME280_temperature;BME280_humidity;BME280_pressure;Samples;Min_cycle;Max_cycle;Signal;HPM_P1;HPM_P2
2023/07/08 00:01:37;;;;;;;;;;;;;;;19.59;54.48;93191.84;2048148;70;20070;-78
2023/07/08 00:04:04;;;;;;;;;;;;;;;19.87;53.84;93186.41;2051352;70;20060;-80
2023/07/08 00:06:30;;;;;;;;;;;;;;;19.84;55.85;93184.88;2050910;70;20098;-80
2023/07/08 00:08:55;;;;;;;;;;;;;;;19.93;55.17;93178.81;2051855;70;20126;-80
2023/07/08 00:11:23;;;;;;;;;;;;;;;19.76;54.93;93182.50;2051712;70;20050;-81
2023/07/08 00:13:49;;;;;;;;;;;;;;;19.76;56.57;93180.38;2051551;69;20085;-80
2023/07/08 00:16:16;;;;;;;;;;;;;;;19.69;57.86;93187.25;2047799;70;20050;-81
2023/07/08 00:18:42;;;;;;;;;;;;;;;19.68;58.54;93179.34;2051269;69;20403;-81
2023/07/08 00:21:08;;;;;;;;;;;;;;;19.71;56.92;93178.75;2051720;70;20412;-80
2023/07/08 00:23:35;;;;;;;;;;;;;;;19.69;56.47;93189.38;2051472;70;20062;-80
2023/07/08 00:26:01;;;;;;;;;;;;;;;19.63;57.06;93189.19;2051444;69;20046;-79
2023/07/08 00:28:28;;;;;;;;;;;;;;;19.53;57.92;93193.13;2051057;70;20820;-79
2023/07/08 00:30:54;;;;;;;;;;;;;;;19.49;59.21;93192.97;2048016;70;20463;-79
2023/07/08 00:33:20;;;;;;;;;;;;;;;19.40;58.30;93191.22;2051048;70;20573;-79
2023/07/08 00:35:45;;;;;;;;;;;;;;;19.36;58.67;93190.34;2050469;70;20066;-79
2023/07/08 00:38:15;;;;;;;;;;;;;;;19.40;59.14;93196.19;2051429;70;20062;-79
2023/07/08 00:40:51;;;;;;;;;;;;;;;19.24;58.31;93191.38;2048338;70;20067;-79
2023/07/08 00:43:20;;;;;;;;;;;;;;;19.32;59.18;93199.47;2051045;70;20055;-80
2023/07/08 00:45:52;;;;;;;;;;;;;;;19.33;58.30;93198.06;2051433;70;20054;-80
2023/07/08 00:48:22;;;;;;;;;;;;;;;19.29;59.03;93197.97;2051040;70;20063;-80
2023/07/08 00:50:51;;;;;;;;;;;;;;;19.26;59.10;93200.00;2051138;70;20149;-79
2023/07/08 00:53:30;;;;;;;;;;;;;;;19.29;59.19;93206.53;2051347;70;20129;-80
2023/07/08 00:56:02;;;;;;;;;;;;;;;19.13;60.46;93211.63;2051417;70;20058;-80
2023/07/08 00:58:33;;;;;;;;;;;;;;;19.17;59.66;93208.91;2051489;70;20050;-80
2023/07/08 01:01:00;;;;;;;;;;;;;;;19.04;60.48;93216.28;2051462;70;20519;-80
2023/07/08 01:03:27;;;;;;;;;;;;;;;19.11;60.03;93215.13;2051110;70;20463;-79
2023/07/08 01:05:56;;;;;;;;;;;;;;;19.04;60.30;93219.13;2050752;70;20095;-79
2023/07/08 01:08:28;;;;;;;;;;;;;;;19.08;60.24;93221.41;2051242;70;20051;-78
2023/07/08 01:10:56;;;;;;;;;;;;;;;19.12;59.31;93215.88;2051287;70;20054;-78
2023/07/08 01:13:22;;;;;;;;;;;;;;;19.09;59.45;93208.59;2051345;70;20083;-78
2023/07/08 01:15:49;;;;;;;;;;;;;;;18.85;59.90;93214.88;2050886;70;20599;-79
2023/07/08 01:18:20;;;;;;;;;;;;;;;18.95;60.05;93217.38;2051034;70;20046;-79
2023/07/08 01:20:47;;;;;;;;;;;;;;;18.92;59.73;93219.44;2051300;70;20173;-80
2023/07/08 01:23:13;;;;;;;;;;;;;;;18.56;60.82;93218.72;2051153;70;20149;-80
2023/07/08 01:25:41;;;;;;;;;;;;;;;18.77;60.81;93218.13;2048568;70;20067;-78
2023/07/08 01:28:07;;;;;;;;;;;;;;;18.81;60.58;93216.84;2048667;70;20077;-79
2023/07/08 01:30:33;;;;;;;;;;;;;;;18.74;60.27;93216.59;2048470;70;20460;-80
2023/07/08 01:33:05;;;;;;;;;;;;;;;18.72;60.62;93207.97;2051803;70;20074;-79
2023/07/08 01:35:31;;;;;;;;;;;;;;;18.51;61.24;93197.88;2051710;70;20113;-81
2023/07/08 01:38:00;;;;;;;;;;;;;;;18.61;60.90;93191.09;2051290;70;20536;-79
2023/07/08 01:40:32;;;;;;;;;;;;;;;18.55;61.27;93188.72;2052360;70;20082;-79
2023/07/08 01:42:58;;;;;;;;;;;;;;;18.48;62.01;93187.75;2051911;70;20059;-80
2023/07/08 01:45:26;;;;;;;;;;;;;;;18.50;58.17;93189.94;2051221;70;20121;-80
2023/07/08 01:47:56;;;;;;;;;;;;;;;18.59;57.47;93191.72;2051880;70;20061;-80
2023/07/08 01:50:24;;;;;;;;;;;;;;;18.57;56.57;93188.81;2051733;70;20069;-80
2023/07/08 01:52:51;;;;;;;;;;;;;;;18.59;57.79;93194.56;2051042;70;20094;-79
2023/07/08 01:55:21;;;;;;;;;;;;;;;18.46;59.04;93193.41;2051240;70;20494;-80
2023/07/08 01:57:50;;;;;;;;;;;;;;;18.37;60.10;93196.56;2051965;70;20054;-79
2023/07/08 02:00:16;;;;;;;;;;;;;;;18.33;60.32;93185.75;2051565;70;20094;-79
2023/07/08 02:02:42;;;;;;;;;;;;;;;18.46;59.65;93184.09;2051175;70;20094;-79
2023/07/08 02:05:08;;;;;;;;;;;;;;;18.35;60.06;93180.13;2050916;69;20051;-79
2023/07/08 02:07:38;;;;;;;;;;;;;;;18.42;58.54;93170.44;2051090;70;20149;-79
2023/07/08 02:10:06;;;;;;;;;;;;;;;18.42;57.50;93166.84;2051528;70;20488;-78
2023/07/08 02:12:33;;;;;;;;;;;;;;;18.39;58.00;93162.44;2048331;70;20062;-79
2023/07/08 02:14:59;;;;;;;;;;;;;;;18.57;56.94;93154.59;2051315;70;20086;-80
2023/07/08 02:17:25;;;;;;;;;;;;;;;18.34;57.55;93157.97;2051464;70;20065;-80
2023/07/08 02:19:52;;;;;;;;;;;;;;;18.20;60.33;93169.53;2051520;70;20055;-80
2023/07/08 02:22:18;;;;;;;;;;;;;;;18.29;59.75;93174.91;2051280;70;20050;-79
2023/07/08 02:24:44;;;;;;;;;;;;;;;18.25;59.62;93179.72;2051956;70;20061;-79
2023/07/08 02:27:10;;;;;;;;;;;;;;;18.18;59.82;93173.03;2052019;70;20085;-79
2023/07/08 02:29:39;;;;;;;;;;;;;;;18.28;58.31;93173.44;2051793;70;20047;-79
2023/07/08 02:32:04;;;;;;;;;;;;;;;18.20;58.49;93183.78;2051944;69;20073;-78
2023/07/08 02:34:31;;;;;;;;;;;;;;;18.17;59.63;93174.41;2051071;70;20653;-80
2023/07/08 02:36:56;;;;;;;;;;;;;;;18.15;59.81;93174.34;2051629;70;20051;-80
2023/07/08 02:39:23;;;;;;;;;;;;;;;18.23;58.59;93179.63;2051598;70;20124;-79
2023/07/08 02:41:49;;;;;;;;;;;;;;;18.24;57.86;93181.09;2048341;70;20094;-79
2023/07/08 02:44:15;;;;;;;;;;;;;;;18.22;58.81;93189.56;2051456;70;20558;-80
2023/07/08 02:46:40;;;;;;;;;;;;;;;18.18;60.07;93189.38;2051740;69;20149;-79
2023/07/08 02:49:06;;;;;;;;;;;;;;;18.01;60.61;93185.16;2050974;70;20145;-80
2023/07/08 02:51:33;;;;;;;;;;;;;;;18.11;60.36;93173.44;2051573;70;20059;-80
2023/07/08 02:53:59;;;;;;;;;;;;;;;18.15;60.08;93177.19;2052038;69;20070;-81
2023/07/08 02:56:26;;;;;;;;;;;;;;;17.93;60.76;93174.16;2051634;70;20197;-81
2023/07/08 02:58:53;;;;;;;;;;;;;;;18.02;60.56;93175.97;2051538;70;20057;-81
2023/07/08 03:01:18;;;;;;;;;;;;;;;18.04;60.60;93164.63;2052310;70;20454;-81
2023/07/08 03:03:48;;;;;;;;;;;;;;;18.08;60.36;93166.91;2051136;70;20059;-80
2023/07/08 03:06:14;;;;;;;;;;;;;;;18.03;59.20;93177.41;2051620;70;20062;-80
2023/07/08 03:08:41;;;;;;;;;;;;;;;18.06;60.33;93180.38;2051443;70;20058;-81
2023/07/08 03:11:07;;;;;;;;;;;;;;;18.06;60.13;93183.22;2051565;70;20054;-82
2023/07/08 03:13:33;;;;;;;;;;;;;;;17.98;61.31;93189.31;2052184;69;20042;-81
2023/07/08 03:16:00;;;;;;;;;;;;;;;18.02;60.96;93195.91;2052270;70;20074;-82
2023/07/08 03:18:26;;;;;;;;;;;;;;;18.11;61.08;93199.09;2050450;70;20054;-81
2023/07/08 03:20:54;;;;;;;;;;;;;;;18.25;58.75;93211.06;2051803;70;20497;-81
2023/07/08 03:23:20;;;;;;;;;;;;;;;18.06;59.74;93212.44;2051564;70;20047;-81
2023/07/08 03:25:45;;;;;;;;;;;;;;;17.85;60.73;93216.53;2051988;70;20061;-80
2023/07/08 03:28:14;;;;;;;;;;;;;;;17.84;60.87;93211.50;2051456;70;20051;-80
2023/07/08 03:30:44;;;;;;;;;;;;;;;17.85;61.43;93202.31;2051539;70;20051;-82
2023/07/08 03:33:10;;;;;;;;;;;;;;;17.81;61.46;93209.94;2051603;70;20161;-82
2023/07/08 03:35:36;;;;;;;;;;;;;;;17.67;61.24;93176.63;2051507;70;20051;-81
2023/07/08 03:38:03;;;;;;;;;;;;;;;17.86;61.18;93205.88;2051779;70;20478;-80
2023/07/08 03:40:30;;;;;;;;;;;;;;;17.98;60.40;93204.28;2048635;70;20495;-79
2023/07/08 03:42:56;;;;;;;;;;;;;;;17.96;60.50;93204.22;2051440;70;20158;-80
2023/07/08 03:45:22;;;;;;;;;;;;;;;17.97;60.96;93202.09;2051318;70;20503;-79
2023/07/08 03:47:48;;;;;;;;;;;;;;;18.08;60.20;93203.22;2048270;70;20087;-81
2023/07/08 03:50:17;;;;;;;;;;;;;;;17.99;60.51;93202.16;2050373;70;20106;-80
2023/07/08 03:52:43;;;;;;;;;;;;;;;17.81;61.13;93190.75;2046694;70;20169;-79
2023/07/08 03:55:10;;;;;;;;;;;;;;;17.75;61.52;93193.34;2047757;70;20488;-81
2023/07/08 03:57:36;;;;;;;;;;;;;;;17.78;62.02;93194.91;2042165;70;20097;-78
2023/07/08 04:00:04;;;;;;;;;;;;;;;17.81;61.82;93196.44;2045854;70;20511;-79
2023/07/08 04:02:39;;;;;;;;;;;;;;;17.88;62.08;93203.88;2044935;70;20504;-80
2023/07/08 04:05:20;;;;;;;;;;;;;;;17.94;61.34;93209.06;2044166;70;20150;-80
2023/07/08 04:07:45;;;;;;;;;;;;;;;17.86;62.87;93208.72;2045865;70;20146;-79
2023/07/08 04:10:11;;;;;;;;;;;;;;;17.81;63.55;93207.09;2047995;70;20225;-80
2023/07/08 04:12:37;;;;;;;;;;;;;;;17.88;62.95;93205.97;2048287;70;20082;-79
2023/07/08 04:15:02;;;;;;;;;;;;;;;17.96;62.39;93203.44;2046228;70;20043;-79
2023/07/08 04:17:28;;;;;;;;;;;;;;;17.88;62.15;93203.88;2046446;70;20597;-80
2023/07/08 04:19:57;;;;;;;;;;;;;;;17.71;62.40;93208.09;2045762;70;20126;-79
2023/07/08 04:22:23;;;;;;;;;;;;;;;17.75;62.92;93213.28;2045501;70;20055;-79
2023/07/08 04:24:49;;;;;;;;;;;;;;;17.81;62.24;93210.69;2045672;70;20084;-81
2023/07/08 04:27:16;;;;;;;;;;;;;;;17.73;62.86;93213.16;2046281;70;20070;-80
2023/07/08 04:29:42;;;;;;;;;;;;;;;17.89;61.61;93218.84;2046297;70;20054;-79
2023/07/08 04:32:09;;;;;;;;;;;;;;;17.78;63.09;93209.88;2047024;70;20058;-79
2023/07/08 04:34:34;;;;;;;;;;;;;;;17.75;64.21;93216.84;2046321;70;21401;-80
2023/07/08 04:37:01;;;;;;;;;;;;;;;17.79;63.50;93213.44;2045487;70;20115;-81
2023/07/08 04:39:26;;;;;;;;;;;;;;;17.81;63.42;93216.38;2045567;70;20093;-80
2023/07/08 04:41:52;;;;;;;;;;;;;;;17.90;62.99;93220.28;2045521;70;20063;-80
2023/07/08 04:44:18;;;;;;;;;;;;;;;17.88;62.95;93217.38;2045111;70;20142;-82
2023/07/08 04:46:43;;;;;;;;;;;;;;;17.89;63.92;93213.13;2045608;70;20484;-82
2023/07/08 04:49:13;;;;;;;;;;;;;;;17.95;63.64;93207.69;2048150;70;20134;-79
2023/07/08 04:51:39;;;;;;;;;;;;;;;17.96;63.04;93214.84;2047577;70;20055;-79
2023/07/08 04:54:05;;;;;;;;;;;;;;;18.01;62.76;93208.69;2048293;70;20502;-80
2023/07/08 04:56:38;;;;;;;;;;;;;;;18.06;62.55;93218.13;2047452;70;20067;-79
2023/07/08 04:59:07;;;;;;;;;;;;;;;18.01;62.44;93205.09;2047509;70;20084;-80
2023/07/08 05:01:35;;;;;;;;;;;;;;;18.00;63.23;93203.63;2047284;70;20056;-80
2023/07/08 05:04:01;;;;;;;;;;;;;;;18.08;62.93;93208.94;2049323;70;20090;-79
2023/07/08 05:06:27;;;;;;;;;;;;;;;18.17;62.92;93205.03;2047002;70;20051;-80
2023/07/08 05:08:52;;;;;;;;;;;;;;;18.14;63.47;93203.47;2047952;70;20084;-79
2023/07/08 05:11:21;;;;;;;;;;;;;;;18.20;61.48;93198.75;2047573;70;20150;-80
2023/07/08 05:13:46;;;;;;;;;;;;;;;18.29;61.69;93209.09;2047472;70;20167;-79
2023/07/08 05:16:13;;;;;;;;;;;;;;;18.20;58.95;93198.75;2047138;70;20563;-79
2023/07/08 05:18:38;;;;;;;;;;;;;;;18.20;59.25;93193.06;2047441;70;20062;-79
2023/07/08 05:21:05;;;;;;;;;;;;;;;18.23;60.04;93193.88;2047009;70;20047;-80
2023/07/08 05:23:31;;;;;;;;;;;;;;;18.27;59.56;93188.34;2046645;70;20095;-81
2023/07/08 05:26:00;;;;;;;;;;;;;;;18.31;58.93;93193.47;2047216;70;20628;-79
2023/07/08 05:28:26;;;;;;;;;;;;;;;18.38;60.13;93193.06;2047469;70;20553;-77
2023/07/08 05:30:54;;;;;;;;;;;;;;;18.36;60.26;93197.94;2046951;70;20051;-81
2023/07/08 05:33:20;;;;;;;;;;;;;;;18.28;61.44;93193.41;2046747;70;20134;-80
2023/07/08 05:35:45;;;;;;;;;;;;;;;18.32;61.68;93192.81;2045893;70;20190;-79
2023/07/08 05:38:11;;;;;;;;;;;;;;;18.26;61.19;93195.41;2048419;70;20443;-79
2023/07/08 05:40:36;;;;;;;;;;;;;;;18.42;61.62;93196.09;2046480;70;20055;-79
2023/07/08 05:43:01;;;;;;;;;;;;;;;18.49;61.82;93200.63;2048017;70;20152;-80
2023/07/08 05:45:27;;;;;;;;;;;;;;;18.56;62.83;93204.47;2048201;70;20050;-81
2023/07/08 05:47:52;;;;;;;;;;;;;;;18.64;62.55;93198.31;2047879;70;20080;-81
2023/07/08 05:50:18;;;;;;;;;;;;;;;18.72;62.78;93207.22;2047091;70;20058;-80
2023/07/08 05:52:43;;;;;;;;;;;;;;;18.76;62.13;93205.25;2047528;70;20043;-79
2023/07/08 05:55:08;;;;;;;;;;;;;;;18.94;62.70;93210.94;2048199;70;20047;-79
2023/07/08 05:57:35;;;;;;;;;;;;;;;19.09;63.28;93209.34;2049085;70;20094;-81
2023/07/08 06:00:01;;;;;;;;;;;;;;;19.12;63.50;93208.03;2045803;70;20138;-82
2023/07/08 06:02:37;;;;;;;;;;;;;;;19.35;62.30;93209.59;2045338;70;20043;-82
2023/07/08 06:05:02;;;;;;;;;;;;;;;19.47;62.75;93212.13;2045610;70;20054;-83
2023/07/08 06:07:28;;;;;;;;;;;;;;;19.09;60.28;93209.34;2045594;70;20047;-80
2023/07/08 06:09:55;;;;;;;;;;;;;;;19.24;60.01;93210.59;2045764;70;20051;-80
2023/07/08 06:12:21;;;;;;;;;;;;;;;19.21;59.27;93211.94;2045887;70;20110;-78
2023/07/08 06:14:46;;;;;;;;;;;;;;;19.51;59.86;93207.31;2045631;70;20150;-78
2023/07/08 06:17:16;;;;;;;;;;;;;;;19.63;60.54;93192.03;2045522;70;20443;-80
2023/07/08 06:19:45;;;;;;;;;;;;;;;19.73;60.58;93190.25;2045587;70;20133;-79
2023/07/08 06:22:10;;;;;;;;;;;;;;;19.75;60.20;93190.34;2045070;70;20154;-78
2023/07/08 06:24:36;;;;;;;;;;;;;;;19.88;58.85;93180.03;2047710;70;20500;-79
2023/07/08 06:27:01;;;;;;;;;;;;;;;19.91;60.66;93181.56;2046577;70;20146;-77
2023/07/08 06:29:27;;;;;;;;;;;;;;;19.90;60.96;93179.38;2047399;70;20476;-78
2023/07/08 06:31:53;;;;;;;;;;;;;;;19.87;61.33;93180.72;2046825;70;20105;-77
2023/07/08 06:34:23;;;;;;;;;;;;;;;19.85;59.78;93187.09;2047034;70;20051;-77
2023/07/08 06:36:49;;;;;;;;;;;;;;;19.88;59.47;93191.47;2047090;70;20199;-79
2023/07/08 06:39:14;;;;;;;;;;;;;;;19.91;60.29;93186.56;2046913;70;20142;-80
2023/07/08 06:41:39;;;;;;;;;;;;;;;19.92;62.09;93193.72;2046332;70;20451;-78
2023/07/08 06:44:05;;;;;;;;;;;;;;;19.99;62.05;93201.84;2045883;70;20055;-79
2023/07/08 06:46:37;;;;;;;;;;;;;;;20.22;60.22;93185.44;2047687;70;20059;-79
2023/07/08 06:49:02;;;;;;;;;;;;;;;20.31;60.90;93190.03;2050656;70;20050;-78
2023/07/08 06:51:28;;;;;;;;;;;;;;;20.42;61.09;93188.97;2047730;70;20058;-79
2023/07/08 06:53:54;;;;;;;;;;;;;;;20.50;60.62;93191.38;2047904;70;20051;-79
2023/07/08 06:56:20;;;;;;;;;;;;;;;20.61;58.98;93193.16;2047817;70;20086;-80
2023/07/08 06:58:45;;;;;;;;;;;;;;;20.71;61.27;93193.50;2048610;70;20062;-80
2023/07/08 07:01:10;;;;;;;;;;;;;;;20.85;58.67;93183.84;2048466;70;20175;-79
2023/07/08 07:03:37;;;;;;;;;;;;;;;20.89;60.40;93178.25;2047340;70;20054;-80
2023/07/08 07:06:04;;;;;;;;;;;;;;;20.96;60.26;93177.03;2047620;70;20058;-80
2023/07/08 07:08:29;;;;;;;;;;;;;;;21.07;58.99;93175.94;2046911;70;20069;-82
2023/07/08 07:10:56;;;;;;;;;;;;;;;21.29;58.56;93170.13;2047736;70;20059;-79
2023/07/08 07:13:21;;;;;;;;;;;;;;;21.49;58.84;93172.88;2047512;70;20102;-79
2023/07/08 07:15:50;;;;;;;;;;;;;;;21.58;58.81;93171.69;2047772;70;20479;-80
2023/07/08 07:18:16;;;;;;;;;;;;;;;21.66;59.42;93163.28;2048268;70;20121;-81
2023/07/08 07:20:47;;;;;;;;;;;;;;;21.64;59.51;93166.13;2048473;70;20063;-80
2023/07/08 07:23:12;;;;;;;;;;;;;;;21.70;58.97;93163.41;2048440;70;20647;-80
2023/07/08 07:25:38;;;;;;;;;;;;;;;21.77;58.87;93165.03;2048322;70;20081;-79
2023/07/08 07:28:04;;;;;;;;;;;;;;;21.79;59.12;93167.22;2048498;70;20482;-80
2023/07/08 07:30:30;;;;;;;;;;;;;;;21.85;59.41;93169.50;2048789;70;20174;-80
2023/07/08 07:32:58;;;;;;;;;;;;;;;21.94;59.52;93169.03;2048770;70;20505;-80
2023/07/08 07:35:23;;;;;;;;;;;;;;;21.91;59.08;93176.16;2048639;70;20062;-80
2023/07/08 07:37:49;;;;;;;;;;;;;;;21.91;59.59;93173.28;2048737;70;20047;-79
2023/07/08 07:40:15;;;;;;;;;;;;;;;21.85;60.69;93164.50;2048766;70;20557;-77
2023/07/08 07:42:41;;;;;;;;;;;;;;;21.93;59.45;93158.25;2048805;70;20511;-81
2023/07/08 07:45:07;;;;;;;;;;;;;;;22.06;59.35;93155.03;2048851;70;20047;-83
2023/07/08 07:47:33;;;;;;;;;;;;;;;22.11;59.11;93163.75;2048802;70;20147;-79
2023/07/08 07:50:09;;;;;;;;;;;;;;;22.23;58.49;93161.94;2048763;70;20142;-81
2023/07/08 07:52:35;;;;;;;;;;;;;;;22.52;58.25;93157.59;2048790;70;20059;-80
2023/07/08 07:55:02;;;;;;;;;;;;;;;22.75;57.88;93147.38;2048258;70;20423;-79
2023/07/08 07:57:28;;;;;;;;;;;;;;;22.99;57.65;93147.19;2049113;70;20055;-80
2023/07/08 08:00:03;;;;;;;;;;;;;;;23.12;54.85;93141.72;2048844;70;20054;-79
2023/07/08 08:02:38;;;;;;;;;;;;;;;23.17;48.54;93141.13;2048845;70;20090;-80
2023/07/08 08:05:04;;;;;;;;;;;;;;;23.17;53.09;93143.28;2048755;70;20153;-81
2023/07/08 08:07:29;;;;;;;;;;;;;;;23.15;52.10;93154.72;2048797;70;20272;-80
2023/07/08 08:09:55;;;;;;;;;;;;;;;23.31;52.00;93146.44;2048775;70;20114;-80
2023/07/08 08:12:24;;;;;;;;;;;;;;;23.25;52.63;93149.91;2048750;70;20154;-80
2023/07/08 08:14:50;;;;;;;;;;;;;;;23.36;52.85;93155.84;2048828;70;20125;-80
2023/07/08 08:17:15;;;;;;;;;;;;;;;23.65;53.17;93155.03;2048847;70;20494;-80
2023/07/08 08:19:41;;;;;;;;;;;;;;;23.86;52.22;93155.41;2048706;70;20054;-79
2023/07/08 08:22:06;;;;;;;;;;;;;;;23.79;52.05;93152.44;2048725;70;20077;-81
2023/07/08 08:24:31;;;;;;;;;;;;;;;24.06;52.66;93152.91;2048800;70;20141;-79
2023/07/08 08:26:57;;;;;;;;;;;;;;;24.50;48.57;93143.59;2048773;70;20055;-78
2023/07/08 08:29:22;;;;;;;;;;;;;;;24.68;45.03;93148.91;2048768;70;20050;-79
2023/07/08 08:31:48;;;;;;;;;;;;;;;25.06;45.82;93135.09;2048801;70;20039;-81
2023/07/08 08:34:13;;;;;;;;;;;;;;;25.42;43.43;93134.09;2048627;70;20102;-79
2023/07/08 08:36:39;;;;;;;;;;;;;;;25.22;45.39;93125.22;2048639;70;20094;-79
2023/07/08 08:39:04;;;;;;;;;;;;;;;25.52;45.34;93139.25;2048843;70;20166;-80
2023/07/08 08:41:31;;;;;;;;;;;;;;;25.47;45.32;93134.88;2048781;70;20075;-78
2023/07/08 08:43:56;;;;;;;;;;;;;;;26.08;45.12;93133.41;2048650;70;20055;-79
2023/07/08 08:46:23;;;;;;;;;;;;;;;26.71;44.64;93127.47;2048629;70;20067;-80
2023/07/08 08:49:14;;;;;;;;;;;;;;;26.85;41.61;93121.09;2048523;70;20488;-81
2023/07/08 08:51:40;;;;;;;;;;;;;;;26.97;41.35;93126.19;2049517;70;20230;-78
2023/07/08 08:54:07;;;;;;;;;;;;;;;26.54;40.97;93126.63;2048721;70;20083;-81
2023/07/08 08:56:56;;;;;;;;;;;;;;;26.56;42.36;93135.28;2048582;70;20130;-80
2023/07/08 08:59:31;;;;;;;;;;;;;;;27.05;39.67;93137.81;2048853;70;20090;-78
2023/07/08 09:01:58;;;;;;;;;;;;;;;28.07;41.69;93132.47;2048559;70;20203;-79
2023/07/08 09:04:27;;;;;;;;;;;;;;;28.34;38.76;93136.88;2048479;70;20050;-79
2023/07/08 09:06:57;;;;;;;;;;;;;;;27.89;39.65;93120.84;2048601;70;20053;-78
2023/07/08 09:09:30;;;;;;;;;;;;;;;28.38;37.78;93126.75;2048754;70;20051;-83
2023/07/08 09:12:14;;;;;;;;;;;;;;;29.02;37.36;93122.41;2048622;70;20054;-78
2023/07/08 09:14:40;;;;;;;;;;;;;;;29.56;37.50;93117.94;2048574;70;20051;-78
2023/07/08 09:17:30;;;;;;;;;;;;;;;28.60;35.94;93118.81;2048602;70;20058;-79
2023/07/08 09:20:03;;;;;;;;;;;;;;;30.31;37.99;93125.53;2048430;70;20090;-77
2023/07/08 09:22:34;;;;;;;;;;;;;;;31.27;36.61;93113.09;2048471;70;20153;-79
2023/07/08 09:25:15;;;;;;;;;;;;;;;30.89;35.38;93114.94;2048509;70;20439;-80
2023/07/08 09:27:40;;;;;;;;;;;;;;;31.60;34.43;93125.84;2048503;70;20074;-79
2023/07/08 09:30:12;;;;;;;;;;;;;;;32.08;34.04;93123.09;2048500;70;20055;-80
2023/07/08 09:32:38;;;;;;;;;;;;;;;32.71;33.32;93118.53;2047866;70;20062;-79
2023/07/08 09:35:07;;;;;;;;;;;;;;;32.74;30.99;93114.84;2048314;70;20422;-76
2023/07/08 09:37:34;;;;;;;;;;;;;;;32.97;30.67;93118.13;2048518;70;20058;-77
2023/07/08 09:40:02;;;;;;;;;;;;;;;32.97;31.10;93108.66;2048743;70;20062;-78
2023/07/08 09:42:29;;;;;;;;;;;;;;;32.27;30.20;93103.88;2048948;70;20063;-78
2023/07/08 09:45:01;;;;;;;;;;;;;;;31.96;32.56;93100.69;2048928;70;20475;-77
2023/07/08 09:47:30;;;;;;;;;;;;;;;32.16;30.12;93098.94;2049022;70;20411;-77
2023/07/08 09:49:57;;;;;;;;;;;;;;;32.04;29.97;93099.84;2048831;70;20051;-77
2023/07/08 09:52:22;;;;;;;;;;;;;;;32.05;31.20;93104.19;2048907;70;20422;-76
2023/07/08 09:54:49;;;;;;;;;;;;;;;32.64;31.59;93109.91;2048900;70;20526;-78
2023/07/08 09:57:26;;;;;;;;;;;;;;;31.25;32.29;93107.28;2048729;70;20054;-78
2023/07/08 09:59:52;;;;;;;;;;;;;;;30.33;33.67;93105.94;2048894;70;20086;-77
2023/07/08 10:02:18;;;;;;;;;;;;;;;29.93;34.46;93106.88;2048830;70;20051;-78
2023/07/08 10:04:43;;;;;;;;;;;;;;;30.13;33.14;93100.97;2048762;70;20047;-77
2023/07/08 10:07:16;;;;;;;;;;;;;;;29.80;34.02;93108.41;2049017;70;20494;-77
2023/07/08 10:09:41;;;;;;;;;;;;;;;29.61;34.58;93107.75;2048929;70;20081;-76
2023/07/08 10:12:09;;;;;;;;;;;;;;;29.60;35.90;93103.41;2048908;70;20051;-78
2023/07/08 10:14:38;;;;;;;;;;;;;;;29.62;35.02;93109.91;2048909;70;20059;-79
2023/07/08 10:17:06;;;;;;;;;;;;;;;29.96;34.59;93102.50;2048891;70;20067;-76
2023/07/08 10:19:31;;;;;;;;;;;;;;;29.99;35.30;93103.22;2048731;70;20483;-76
2023/07/08 10:22:03;;;;;;;;;;;;;;;30.31;34.66;93108.81;2048974;70;20054;-77
2023/07/08 10:24:41;;;;;;;;;;;;;;;29.20;35.42;93116.56;2048327;70;20073;-79
2023/07/08 10:33:39;;;;;;;;;;;;;;;30.28;35.81;93107.38;2031296;70;20513;-79
2023/07/08 10:36:18;;;;;;;;;;;;;;;30.41;36.39;93105.13;2030697;70;20473;-81
2023/07/08 10:38:47;;;;;;;;;;;;;;;30.49;33.42;93107.25;2030532;70;20057;-81
2023/07/08 10:41:18;;;;;;;;;;;;;;;31.10;32.39;93095.81;2028150;70;20095;-81
2023/07/08 10:43:53;;;;;;;;;;;;;;;31.25;32.22;93092.75;2028146;70;20046;-78
2023/07/08 10:46:35;;;;;;;;;;;;;;;30.99;33.33;93091.59;2026472;71;20514;-82
2023/07/08 10:49:03;;;;;;;;;;;;;;;31.43;32.52;93083.13;2027750;70;20045;-82
2023/07/08 10:51:39;;;;;;;;;;;;;;;31.29;33.85;93084.72;2027178;70;20058;-80
2023/07/08 10:54:14;;;;;;;;;;;;;;;33.49;29.17;93088.75;2028590;70;20492;-87
2023/07/08 10:56:39;;;;;;;;;;;;;;;35.26;27.23;93086.97;2028017;70;20088;-81
2023/07/08 10:59:14;;;;;;;;;;;;;;;34.02;29.19;93093.53;2027826;70;20045;-79
2023/07/08 11:01:52;;;;;;;;;;;;;;;31.99;30.62;93081.00;2027719;70;20093;-77
2023/07/08 11:04:34;;;;;;;;;;;;;;;31.68;31.81;93080.66;2027793;70;20054;-79
2023/07/08 11:07:05;;;;;;;;;;;;;;;31.79;32.72;93076.13;2027704;70;20414;-80
2023/07/08 11:09:36;;;;;;;;;;;;;;;31.57;31.20;93074.97;2027840;70;20067;-80
2023/07/08 11:12:14;;;;;;;;;;;;;;;31.30;32.80;93073.84;2028124;70;20049;-82
2023/07/08 11:14:46;;;;;;;;;;;;;;;31.06;33.10;93068.97;2028063;70;20116;-78
2023/07/08 11:17:19;;;;;;;;;;;;;;;31.60;34.73;93072.75;2027932;70;20049;-79
2023/07/08 11:19:56;;;;;;;;;;;;;;;31.33;33.00;93064.34;2027240;70;20465;-79
2023/07/08 11:22:22;;;;;;;;;;;;;;;31.41;35.72;93060.63;2028206;70;20144;-79
2023/07/08 11:24:51;;;;;;;;;;;;;;;31.42;36.74;93061.34;2027562;70;20477;-85
2023/07/08 11:27:24;;;;;;;;;;;;;;;31.81;37.28;93064.47;2027233;70;20073;-84
2023/07/08 11:29:57;;;;;;;;;;;;;;;32.31;37.35;93063.06;2027257;70;20054;-83
2023/07/08 11:32:26;;;;;;;;;;;;;;;31.98;38.32;93059.91;2027674;70;20065;-79
2023/07/08 11:34:52;;;;;;;;;;;;;;;31.90;37.53;93059.31;2027555;70;20076;-77
2023/07/08 11:37:20;;;;;;;;;;;;;;;32.20;34.87;93053.00;2027809;70;20057;-79
2023/07/08 11:39:46;;;;;;;;;;;;;;;32.70;33.18;93061.72;2027906;70;20140;-79
2023/07/08 11:42:17;;;;;;;;;;;;;;;33.09;32.54;93056.69;2026837;70;20497;-80
2023/07/08 11:44:47;;;;;;;;;;;;;;;34.26;30.13;93052.09;2027665;70;20118;-79
2023/07/08 11:47:18;;;;;;;;;;;;;;;34.34;30.68;93048.28;2026794;70;20063;-80
2023/07/08 11:49:45;;;;;;;;;;;;;;;35.88;26.53;93052.31;2027001;70;20159;-82
2023/07/08 11:52:16;;;;;;;;;;;;;;;39.22;25.55;93053.69;2027851;70;20057;-82
2023/07/08 11:54:45;;;;;;;;;;;;;;;36.89;23.63;93056.50;2027842;70;20093;-82
2023/07/08 11:57:27;;;;;;;;;;;;;;;36.70;25.77;93046.16;2026872;70;20049;-83
2023/07/08 12:00:13;;;;;;;;;;;;;;;34.85;26.62;93044.81;2027172;70;20060;-83
2023/07/08 12:02:52;;;;;;;;;;;;;;;33.30;28.76;93035.84;2027467;70;20124;-81
2023/07/08 12:05:28;;;;;;;;;;;;;;;33.18;27.80;93027.38;2027276;70;20136;-82
2023/07/08 12:07:57;;;;;;;;;;;;;;;32.46;29.64;93028.59;2026874;70;20053;-82
2023/07/08 12:10:23;;;;;;;;;;;;;;;33.09;29.07;93026.78;2027824;70;20445;-84
2023/07/08 12:12:48;;;;;;;;;;;;;;;33.08;28.51;93031.16;2026193;70;20046;-83
2023/07/08 12:15:14;;;;;;;;;;;;;;;33.66;28.27;93031.50;2026122;70;20134;-85
2023/07/08 12:17:40;;;;;;;;;;;;;;;33.38;28.53;93030.59;2026456;70;20085;-88
2023/07/08 12:20:15;;;;;;;;;;;;;;;32.91;29.52;93027.13;2027895;70;20428;-81
2023/07/08 12:22:41;;;;;;;;;;;;;;;32.55;34.28;93029.19;2033002;70;20049;-87
2023/07/08 12:25:13;;;;;;;;;;;;;;;32.59;37.09;93026.94;2030927;70;20077;-85
2023/07/08 12:27:38;;;;;;;;;;;;;;;32.31;37.81;93031.00;2029616;70;20049;-86
2023/07/08 12:30:04;;;;;;;;;;;;;;;32.37;39.20;93027.31;2029317;70;20067;-81
2023/07/08 12:32:29;;;;;;;;;;;;;;;31.85;39.38;93029.53;2028950;70;20060;-80
2023/07/08 12:34:55;;;;;;;;;;;;;;;31.97;37.58;93034.44;2029696;70;20080;-81
2023/07/08 12:37:21;;;;;;;;;;;;;;;31.72;39.16;93034.75;2029098;70;20485;-80
2023/07/08 12:39:55;;;;;;;;;;;;;;;31.51;39.50;93033.59;2029837;70;20080;-85
2023/07/08 12:42:20;;;;;;;;;;;;;;;31.85;37.95;93044.09;2029589;70;20046;-87
2023/07/08 12:44:46;;;;;;;;;;;;;;;31.68;38.51;93043.53;2029550;70;20060;-85
2023/07/08 12:47:11;;;;;;;;;;;;;;;31.87;38.67;93046.94;2029159;70;20057;-88
2023/07/08 12:49:37;;;;;;;;;;;;;;;32.33;38.58;93044.81;2026441;70;20049;-85
2023/07/08 12:52:04;;;;;;;;;;;;;;;32.31;37.07;93042.66;2026453;70;20081;-83
2023/07/08 12:54:30;;;;;;;;;;;;;;;31.98;38.62;93042.44;2027741;70;20057;-81
2023/07/08 12:56:58;;;;;;;;;;;;;;;32.35;37.78;93038.97;2029539;70;20060;-80
2023/07/08 12:59:24;;;;;;;;;;;;;;;32.92;36.91;93046.78;2029688;70;20061;-81